Time;durP1;ratioP1;P1;durP2;ratioP2;P2;SDS_P1;SDS_P2;PMS_P1;PMS_P2;Temp;Humidity;BMP_temperature;BMP_pressure;BME280_temperature;BME280_humidity;BME280_pressure;Samples;Min_cycle;Max_cycle;Signal;HPM_P1;HPM_P2
2022/09/27 04:15:12;;;;;;;24.67;11.00;;;11.70;99.90;;;;;;4876920;29;20060;-85
2022/09/27 04:23:38;;;;;;;22.00;9.88;;;11.60;99.90;;;;;;4811080;29;20030;-86
2022/09/27 04:27:09;;;;;;;;;;;11.70;99.90;;;;;;4788840;29;20060;-85
2022/09/27 04:31:19;;;;;;;26.52;9.88;;;11.60;99.90;;;;;;4679268;30;19991;-86
2022/09/27 04:39:35;;;;;;;23.25;10.32;;;11.60;99.90;;;;;;4665405;30;20212;-85
2022/09/27 04:43:02;;;;;;;15.50;9.10;;;11.60;99.90;;;;;;4603994;31;20111;-85
2022/09/27 04:46:01;;;;;;;17.73;10.38;;;11.30;99.90;;;;;;4622561;31;20067;-85
2022/09/27 04:49:06;;;;;;;19.08;9.77;;;11.60;99.90;;;;;;4598346;31;20047;-85
2022/09/27 04:52:37;;;;;;;18.27;9.52;;;11.60;99.90;;;;;;4596244;31;20060;-85
2022/09/27 04:55:27;;;;;;;22.42;10.43;;;11.60;99.90;;;;;;4560482;31;20045;-85
2022/09/27 04:58:57;;;;;;;36.25;10.15;;;11.90;99.90;;;;;;4604551;30;20120;-86
2022/09/27 05:03:04;;;;;;;22.08;10.27;;;11.70;99.90;;;;;;4573550;31;20093;-85
2022/09/27 05:06:22;;;;;;;30.43;11.93;;;11.60;99.90;;;;;;4535661;31;20069;-85
2022/09/27 05:09:50;;;;;;;20.08;10.25;;;11.70;99.90;;;;;;4568327;31;20037;-86
2022/09/27 05:13:17;;;;;;;18.17;9.55;;;11.70;99.90;;;;;;4561393;31;20081;-86
2022/09/27 05:16:13;;;;;;;25.52;11.43;;;11.10;99.90;;;;;;4582718;31;20061;-86
2022/09/27 05:24:16;;;;;;;29.25;10.85;;;11.70;99.90;;;;;;4591011;31;20052;-85
2022/09/27 05:28:00;;;;;;;20.80;9.98;;;11.70;99.90;;;;;;4860219;24;20139;-85
2022/09/27 05:31:35;;;;;;;30.33;11.52;;;11.70;99.90;;;;;;4783753;30;20063;-86
2022/09/27 05:34:19;;;;;;;35.20;11.85;;;11.70;99.90;;;;;;4784274;29;20040;-85
2022/09/27 05:37:45;;;;;;;31.30;11.68;;;11.80;99.90;;;;;;4739680;30;20070;-85
2022/09/27 05:41:05;;;;;;;31.98;11.85;;;11.80;99.90;;;;;;4738664;30;20037;-85
2022/09/27 05:44:43;;;;;;;22.00;11.27;;;11.70;99.90;;;;;;4732063;30;20056;-85
2022/09/27 05:49:06;;;;;;;21.65;9.77;;;11.50;99.90;;;;;;4693703;30;20065;-86
2022/09/27 05:52:13;;;;;;;21.23;11.10;;;11.70;99.90;;;;;;4705318;30;20042;-85
2022/09/27 05:56:07;;;;;;;22.33;10.75;;;11.80;99.90;;;;;;4713985;30;20090;-86
2022/09/27 05:59:43;;;;;;;19.45;10.38;;;11.80;99.90;;;;;;4634599;30;20070;-85
2022/09/27 06:04:05;;;;;;;22.83;10.73;;;12.00;99.90;;;;;;4654745;30;20090;-85
2022/09/27 06:08:02;;;;;;;21.48;10.82;;;11.80;99.90;;;;;;4637898;31;20043;-85
2022/09/27 06:11:28;;;;;;;22.92;11.40;;;11.80;99.90;;;;;;4616452;31;20044;-84
2022/09/27 06:15:27;;;;;;;22.70;11.25;;;11.70;99.90;;;;;;4608704;31;20115;-86
2022/09/27 06:19:16;;;;;;;22.08;10.27;;;11.80;99.90;;;;;;4534579;31;20137;-85
2022/09/27 06:22:32;;;;;;;23.13;11.52;;;11.80;99.90;;;;;;4523575;31;20068;-86
2022/09/27 06:25:55;;;;;;;26.83;10.70;;;11.80;99.90;;;;;;4543267;31;20054;-84
2022/09/27 06:29:34;;;;;;;23.02;11.23;;;12.00;99.90;;;;;;4519243;31;20055;-85
2022/09/27 06:33:20;;;;;;;18.38;9.50;;;12.00;99.90;;;;;;4570509;31;20098;-85
2022/09/27 06:36:37;;;;;;;24.27;11.50;;;12.10;99.90;;;;;;4520003;31;20050;-84
2022/09/27 06:40:38;;;;;;;22.30;11.40;;;12.20;99.90;;;;;;4537664;31;20092;-84
2022/09/27 06:44:18;;;;;;;25.77;11.82;;;12.30;99.90;;;;;;4509817;31;20073;-86
2022/09/27 06:48:38;;;;;;;23.52;11.80;;;12.40;99.90;;;;;;4490369;31;20090;-86
2022/09/27 06:52:25;;;;;;;20.63;10.40;;;12.00;99.90;;;;;;4533519;31;20057;-85
2022/09/27 06:56:20;;;;;;;24.58;12.27;;;12.40;99.90;;;;;;4558632;31;20070;-86
2022/09/27 07:01:03;;;;;;;20.23;10.95;;;12.40;99.90;;;;;;4522525;31;20059;-86
2022/09/27 07:04:42;;;;;;;25.90;12.07;;;12.50;99.90;;;;;;4447205;32;20156;-86
2022/09/27 07:08:21;;;;;;;23.67;12.13;;;12.50;99.90;;;;;;4509838;31;20117;-85
2022/09/27 12:36:26;;;;;;;9.50;5.25;;;16.20;99.90;;;;;;5913790;23;20029;31
2022/09/27 14:08:13;;;;;;;15.70;8.80;;;16.60;99.90;;;;;;5939174;23;20024;31
2022/09/27 14:54:21;;;;;;;1.27;0.45;;;15.70;99.90;;;;;;2830460;23;20334;-85
2022/09/27 14:56:59;;;;;;;1.25;0.20;;;15.50;99.90;;;;;;4897861;24;20066;-84
2022/09/27 15:00:40;;;;;;;3.40;0.60;;;15.50;99.90;;;;;;5422432;23;20288;31
2022/09/27 15:04:31;;;;;;;1.37;0.60;;;15.30;99.90;;;;;;5915466;24;21085;31
2022/09/27 15:40:55;;;;;;;2.70;0.30;;;14.70;99.90;;;;;;5687862;23;20062;-84
